sensor_id;sensor_type;location;lat;lon;timestamp;P1;durP1;ratioP1;P2;durP2;ratioP2
40252;SDS011;25972;51.854;4.534;2023-08-01T00:01:11;23.08;;;20.90;;
40252;SDS011;25972;51.854;4.534;2023-08-01T00:03:38;24.00;;;21.88;;
40252;SDS011;25972;51.854;4.534;2023-08-01T00:06:04;23.17;;;21.25;;
40252;SDS011;25972;51.854;4.534;2023-08-01T00:08:30;23.92;;;21.75;;
40252;SDS011;25972;51.854;4.534;2023-08-01T00:10:56;25.00;;;21.92;;
40252;SDS011;25972;51.854;4.534;2023-08-01T00:13:23;23.48;;;21.33;;
40252;SDS011;25972;51.854;4.534;2023-08-01T00:15:49;24.85;;;22.33;;
40252;SDS011;25972;51.854;4.534;2023-08-01T00:18:16;24.58;;;22.27;;
40252;SDS011;25972;51.854;4.534;2023-08-01T00:20:42;23.95;;;21.58;;
40252;SDS011;25972;51.854;4.534;2023-08-01T00:23:08;23.70;;;21.65;;
40252;SDS011;25972;51.854;4.534;2023-08-01T00:25:35;24.42;;;22.23;;
40252;SDS011;25972;51.854;4.534;2023-08-01T00:28:01;23.33;;;21.58;;
40252;SDS011;25972;51.854;4.534;2023-08-01T00:30:29;24.65;;;22.33;;
40252;SDS011;25972;51.854;4.534;2023-08-01T00:32:55;23.88;;;21.35;;
40252;SDS011;25972;51.854;4.534;2023-08-01T00:35:21;23.52;;;21.63;;
40252;SDS011;25972;51.854;4.534;2023-08-01T00:37:48;23.95;;;21.90;;
40252;SDS011;25972;51.854;4.534;2023-08-01T00:40:15;24.38;;;22.25;;
40252;SDS011;25972;51.854;4.534;2023-08-01T00:42:43;24.17;;;22.00;;
40252;SDS011;25972;51.854;4.534;2023-08-01T00:45:10;24.02;;;22.13;;
40252;SDS011;25972;51.854;4.534;2023-08-01T00:47:38;24.30;;;22.30;;
40252;SDS011;25972;51.854;4.534;2023-08-01T00:50:04;24.45;;;22.40;;
40252;SDS011;25972;51.854;4.534;2023-08-01T00:52:36;24.67;;;22.60;;
40252;SDS011;25972;51.854;4.534;2023-08-01T00:55:02;24.33;;;22.20;;
40252;SDS011;25972;51.854;4.534;2023-08-01T00:57:31;25.13;;;22.98;;
40252;SDS011;25972;51.854;4.534;2023-08-01T00:59:57;24.75;;;22.50;;
40252;SDS011;25972;51.854;4.534;2023-08-01T01:02:23;25.63;;;22.42;;
40252;SDS011;25972;51.854;4.534;2023-08-01T01:04:51;24.45;;;22.48;;
40252;SDS011;25972;51.854;4.534;2023-08-01T01:07:17;24.42;;;21.95;;
40252;SDS011;25972;51.854;4.534;2023-08-01T01:09:43;24.70;;;22.70;;
40252;SDS011;25972;51.854;4.534;2023-08-01T01:12:09;23.52;;;21.30;;
40252;SDS011;25972;51.854;4.534;2023-08-01T01:14:35;24.63;;;22.65;;
40252;SDS011;25972;51.854;4.534;2023-08-01T01:17:01;29.92;;;23.00;;
40252;SDS011;25972;51.854;4.534;2023-08-01T01:19:29;24.35;;;22.15;;
40252;SDS011;25972;51.854;4.534;2023-08-01T01:21:57;24.80;;;22.60;;
40252;SDS011;25972;51.854;4.534;2023-08-01T01:24:24;25.13;;;22.58;;
40252;SDS011;25972;51.854;4.534;2023-08-01T01:26:51;24.52;;;22.60;;
40252;SDS011;25972;51.854;4.534;2023-08-01T01:29:24;24.20;;;22.08;;
40252;SDS011;25972;51.854;4.534;2023-08-01T01:31:51;24.83;;;22.73;;
40252;SDS011;25972;51.854;4.534;2023-08-01T01:34:18;24.02;;;21.80;;
40252;SDS011;25972;51.854;4.534;2023-08-01T01:36:44;25.13;;;22.73;;
40252;SDS011;25972;51.854;4.534;2023-08-01T01:39:12;24.63;;;22.40;;
40252;SDS011;25972;51.854;4.534;2023-08-01T01:41:38;24.85;;;22.42;;
40252;SDS011;25972;51.854;4.534;2023-08-01T01:44:04;23.95;;;22.15;;
40252;SDS011;25972;51.854;4.534;2023-08-01T01:46:30;24.50;;;22.15;;
40252;SDS011;25972;51.854;4.534;2023-08-01T01:48:56;24.38;;;22.55;;
40252;SDS011;25972;51.854;4.534;2023-08-01T01:51:25;24.40;;;22.50;;
40252;SDS011;25972;51.854;4.534;2023-08-01T01:53:51;23.50;;;21.60;;
40252;SDS011;25972;51.854;4.534;2023-08-01T01:56:19;24.10;;;22.00;;
40252;SDS011;25972;51.854;4.534;2023-08-01T01:58:45;22.92;;;21.23;;
40252;SDS011;25972;51.854;4.534;2023-08-01T02:01:11;23.58;;;21.58;;
40252;SDS011;25972;51.854;4.534;2023-08-01T02:03:38;24.50;;;22.23;;
40252;SDS011;25972;51.854;4.534;2023-08-01T02:06:04;24.25;;;22.25;;
40252;SDS011;25972;51.854;4.534;2023-08-01T02:08:30;22.67;;;20.67;;
40252;SDS011;25972;51.854;4.534;2023-08-01T02:10:59;23.40;;;21.50;;
40252;SDS011;25972;51.854;4.534;2023-08-01T02:13:28;23.88;;;21.55;;
40252;SDS011;25972;51.854;4.534;2023-08-01T02:15:55;23.15;;;21.33;;
40252;SDS011;25972;51.854;4.534;2023-08-01T02:18:21;24.35;;;22.25;;
40252;SDS011;25972;51.854;4.534;2023-08-01T02:20:47;24.35;;;21.88;;
40252;SDS011;25972;51.854;4.534;2023-08-01T02:23:13;23.27;;;21.27;;
40252;SDS011;25972;51.854;4.534;2023-08-01T02:25:40;25.05;;;22.40;;
40252;SDS011;25972;51.854;4.534;2023-08-01T02:28:06;23.52;;;21.20;;
40252;SDS011;25972;51.854;4.534;2023-08-01T02:30:36;25.50;;;22.05;;
40252;SDS011;25972;51.854;4.534;2023-08-01T02:33:02;22.10;;;20.35;;
40252;SDS011;25972;51.854;4.534;2023-08-01T02:35:28;22.35;;;20.42;;
40252;SDS011;25972;51.854;4.534;2023-08-01T02:37:55;23.17;;;21.13;;
40252;SDS011;25972;51.854;4.534;2023-08-01T02:40:22;23.08;;;20.83;;
40252;SDS011;25972;51.854;4.534;2023-08-01T02:42:48;23.23;;;21.08;;
40252;SDS011;25972;51.854;4.534;2023-08-01T02:45:14;22.70;;;20.90;;
40252;SDS011;25972;51.854;4.534;2023-08-01T02:47:41;23.23;;;20.95;;
40252;SDS011;25972;51.854;4.534;2023-08-01T02:50:08;23.30;;;21.15;;
40252;SDS011;25972;51.854;4.534;2023-08-01T02:52:34;24.00;;;21.92;;
40252;SDS011;25972;51.854;4.534;2023-08-01T02:55:00;23.20;;;21.08;;
40252;SDS011;25972;51.854;4.534;2023-08-01T02:57:26;22.83;;;20.80;;
40252;SDS011;25972;51.854;4.534;2023-08-01T02:59:53;22.20;;;20.27;;
40252;SDS011;25972;51.854;4.534;2023-08-01T03:02:19;25.15;;;21.95;;
40252;SDS011;25972;51.854;4.534;2023-08-01T03:04:47;23.48;;;21.17;;
40252;SDS011;25972;51.854;4.534;2023-08-01T03:07:13;22.77;;;20.63;;
40252;SDS011;25972;51.854;4.534;2023-08-01T03:09:40;22.80;;;21.05;;
40252;SDS011;25972;51.854;4.534;2023-08-01T03:12:08;23.58;;;21.27;;
40252;SDS011;25972;51.854;4.534;2023-08-01T03:14:34;23.50;;;21.05;;
40252;SDS011;25972;51.854;4.534;2023-08-01T03:17:00;23.77;;;21.30;;
40252;SDS011;25972;51.854;4.534;2023-08-01T03:19:26;24.25;;;21.77;;
40252;SDS011;25972;51.854;4.534;2023-08-01T03:21:53;23.40;;;21.05;;
40252;SDS011;25972;51.854;4.534;2023-08-01T03:24:22;23.50;;;21.33;;
40252;SDS011;25972;51.854;4.534;2023-08-01T03:26:48;24.30;;;21.13;;
40252;SDS011;25972;51.854;4.534;2023-08-01T03:29:14;25.20;;;21.85;;
40252;SDS011;25972;51.854;4.534;2023-08-01T03:31:41;22.92;;;20.92;;
40252;SDS011;25972;51.854;4.534;2023-08-01T03:34:07;23.52;;;21.35;;
40252;SDS011;25972;51.854;4.534;2023-08-01T03:36:35;24.00;;;21.90;;
40252;SDS011;25972;51.854;4.534;2023-08-01T03:39:03;24.05;;;21.60;;
40252;SDS011;25972;51.854;4.534;2023-08-01T03:41:33;24.05;;;21.60;;
40252;SDS011;25972;51.854;4.534;2023-08-01T03:43:59;28.10;;;22.40;;
40252;SDS011;25972;51.854;4.534;2023-08-01T03:46:25;24.45;;;22.35;;
40252;SDS011;25972;51.854;4.534;2023-08-01T03:48:52;23.33;;;21.42;;
40252;SDS011;25972;51.854;4.534;2023-08-01T03:51:20;22.92;;;20.88;;
40252;SDS011;25972;51.854;4.534;2023-08-01T03:53:46;23.40;;;21.02;;
40252;SDS011;25972;51.854;4.534;2023-08-01T03:56:14;23.73;;;21.35;;
40252;SDS011;25972;51.854;4.534;2023-08-01T03:58:40;24.65;;;22.13;;
40252;SDS011;25972;51.854;4.534;2023-08-01T04:01:10;27.45;;;21.23;;
40252;SDS011;25972;51.854;4.534;2023-08-01T04:03:36;23.15;;;20.88;;
40252;SDS011;25972;51.854;4.534;2023-08-01T04:06:02;22.48;;;20.48;;
40252;SDS011;25972;51.854;4.534;2023-08-01T04:08:28;22.15;;;20.25;;
40252;SDS011;25972;51.854;4.534;2023-08-01T04:10:55;24.20;;;21.67;;
40252;SDS011;25972;51.854;4.534;2023-08-01T04:13:22;22.95;;;20.67;;
40252;SDS011;25972;51.854;4.534;2023-08-01T04:15:48;22.80;;;20.80;;
40252;SDS011;25972;51.854;4.534;2023-08-01T04:18:14;22.23;;;20.30;;
40252;SDS011;25972;51.854;4.534;2023-08-01T04:20:40;24.10;;;21.83;;
40252;SDS011;25972;51.854;4.534;2023-08-01T04:23:06;23.67;;;21.30;;
40252;SDS011;25972;51.854;4.534;2023-08-01T04:25:32;23.33;;;21.13;;
40252;SDS011;25972;51.854;4.534;2023-08-01T04:27:59;23.67;;;21.08;;
40252;SDS011;25972;51.854;4.534;2023-08-01T04:30:26;23.42;;;21.42;;
40252;SDS011;25972;51.854;4.534;2023-08-01T04:32:52;23.52;;;21.48;;
40252;SDS011;25972;51.854;4.534;2023-08-01T04:35:18;23.92;;;21.80;;
40252;SDS011;25972;51.854;4.534;2023-08-01T04:37:44;23.50;;;21.25;;
40252;SDS011;25972;51.854;4.534;2023-08-01T04:40:11;23.70;;;21.48;;
40252;SDS011;25972;51.854;4.534;2023-08-01T04:42:37;23.23;;;21.08;;
40252;SDS011;25972;51.854;4.534;2023-08-01T04:45:04;23.90;;;21.45;;
40252;SDS011;25972;51.854;4.534;2023-08-01T04:47:33;22.85;;;20.80;;
40252;SDS011;25972;51.854;4.534;2023-08-01T04:50:00;23.23;;;21.02;;
40252;SDS011;25972;51.854;4.534;2023-08-01T04:52:26;23.45;;;21.25;;
40252;SDS011;25972;51.854;4.534;2023-08-01T04:54:52;24.00;;;21.83;;
40252;SDS011;25972;51.854;4.534;2023-08-01T04:57:18;23.80;;;21.65;;
40252;SDS011;25972;51.854;4.534;2023-08-01T04:59:45;23.77;;;21.60;;
40252;SDS011;25972;51.854;4.534;2023-08-01T05:02:14;23.27;;;21.25;;
40252;SDS011;25972;51.854;4.534;2023-08-01T05:04:42;23.65;;;21.23;;
40252;SDS011;25972;51.854;4.534;2023-08-01T05:07:08;23.20;;;20.92;;
40252;SDS011;25972;51.854;4.534;2023-08-01T05:09:34;23.00;;;21.02;;
40252;SDS011;25972;51.854;4.534;2023-08-01T05:12:00;22.55;;;20.55;;
40252;SDS011;25972;51.854;4.534;2023-08-01T05:14:26;23.17;;;20.70;;
40252;SDS011;25972;51.854;4.534;2023-08-01T05:16:52;22.98;;;20.88;;
40252;SDS011;25972;51.854;4.534;2023-08-01T05:19:18;24.73;;;20.35;;
40252;SDS011;25972;51.854;4.534;2023-08-01T05:21:45;23.38;;;20.58;;
40252;SDS011;25972;51.854;4.534;2023-08-01T05:24:12;22.65;;;20.63;;
40252;SDS011;25972;51.854;4.534;2023-08-01T05:26:38;22.05;;;20.02;;
40252;SDS011;25972;51.854;4.534;2023-08-01T05:29:04;22.45;;;20.55;;
40252;SDS011;25972;51.854;4.534;2023-08-01T05:31:30;23.35;;;21.25;;
40252;SDS011;25972;51.854;4.534;2023-08-01T05:33:56;22.67;;;20.55;;
40252;SDS011;25972;51.854;4.534;2023-08-01T05:36:22;22.77;;;20.77;;
40252;SDS011;25972;51.854;4.534;2023-08-01T05:38:50;23.17;;;20.92;;
40252;SDS011;25972;51.854;4.534;2023-08-01T05:41:16;24.80;;;20.63;;
40252;SDS011;25972;51.854;4.534;2023-08-01T05:43:42;22.02;;;20.10;;
40252;SDS011;25972;51.854;4.534;2023-08-01T05:46:10;21.90;;;20.08;;
40252;SDS011;25972;51.854;4.534;2023-08-01T05:48:36;22.73;;;19.63;;
40252;SDS011;25972;51.854;4.534;2023-08-01T05:51:02;21.17;;;19.45;;
40252;SDS011;25972;51.854;4.534;2023-08-01T05:53:28;21.77;;;19.85;;
40252;SDS011;25972;51.854;4.534;2023-08-01T05:56:05;21.92;;;20.02;;
40252;SDS011;25972;51.854;4.534;2023-08-01T05:58:31;23.50;;;21.23;;
40252;SDS011;25972;51.854;4.534;2023-08-01T06:00:57;22.52;;;20.42;;
40252;SDS011;25972;51.854;4.534;2023-08-01T06:03:23;23.17;;;21.20;;
40252;SDS011;25972;51.854;4.534;2023-08-01T06:05:49;24.38;;;19.92;;
40252;SDS011;25972;51.854;4.534;2023-08-01T06:08:15;22.88;;;20.67;;
40252;SDS011;25972;51.854;4.534;2023-08-01T06:10:42;22.15;;;19.77;;
40252;SDS011;25972;51.854;4.534;2023-08-01T06:13:09;24.85;;;20.23;;
40252;SDS011;25972;51.854;4.534;2023-08-01T06:15:35;21.80;;;19.52;;
40252;SDS011;25972;51.854;4.534;2023-08-01T06:18:06;21.48;;;19.42;;
40252;SDS011;25972;51.854;4.534;2023-08-01T06:20:32;20.75;;;19.15;;
40252;SDS011;25972;51.854;4.534;2023-08-01T06:22:59;22.27;;;20.08;;
40252;SDS011;25972;51.854;4.534;2023-08-01T06:25:25;22.35;;;20.27;;
40252;SDS011;25972;51.854;4.534;2023-08-01T06:27:51;22.35;;;20.13;;
40252;SDS011;25972;51.854;4.534;2023-08-01T06:30:19;23.08;;;20.65;;
40252;SDS011;25972;51.854;4.534;2023-08-01T06:32:47;22.30;;;20.25;;
40252;SDS011;25972;51.854;4.534;2023-08-01T06:35:13;22.45;;;20.35;;
40252;SDS011;25972;51.854;4.534;2023-08-01T06:37:40;22.15;;;20.20;;
40252;SDS011;25972;51.854;4.534;2023-08-01T06:40:09;21.83;;;20.05;;
40252;SDS011;25972;51.854;4.534;2023-08-01T06:42:36;22.35;;;20.13;;
40252;SDS011;25972;51.854;4.534;2023-08-01T06:45:02;21.98;;;20.13;;
40252;SDS011;25972;51.854;4.534;2023-08-01T06:47:30;22.83;;;20.00;;
40252;SDS011;25972;51.854;4.534;2023-08-01T06:49:56;22.70;;;20.27;;
40252;SDS011;25972;51.854;4.534;2023-08-01T06:52:24;22.73;;;20.52;;
40252;SDS011;25972;51.854;4.534;2023-08-01T06:54:50;24.08;;;21.58;;
40252;SDS011;25972;51.854;4.534;2023-08-01T06:57:17;22.48;;;20.27;;
40252;SDS011;25972;51.854;4.534;2023-08-01T06:59:44;20.70;;;19.10;;
40252;SDS011;25972;51.854;4.534;2023-08-01T07:02:10;21.70;;;19.70;;
40252;SDS011;25972;51.854;4.534;2023-08-01T07:04:38;20.80;;;19.23;;
40252;SDS011;25972;51.854;4.534;2023-08-01T07:07:04;22.70;;;20.35;;
40252;SDS011;25972;51.854;4.534;2023-08-01T07:09:31;22.65;;;20.38;;
40252;SDS011;25972;51.854;4.534;2023-08-01T07:11:57;25.10;;;20.58;;
40252;SDS011;25972;51.854;4.534;2023-08-01T07:14:23;21.90;;;19.80;;
40252;SDS011;25972;51.854;4.534;2023-08-01T07:16:49;21.58;;;19.60;;
40252;SDS011;25972;51.854;4.534;2023-08-01T07:19:15;22.10;;;19.95;;
40252;SDS011;25972;51.854;4.534;2023-08-01T07:21:44;22.48;;;20.23;;
40252;SDS011;25972;51.854;4.534;2023-08-01T07:24:13;23.27;;;20.98;;
40252;SDS011;25972;51.854;4.534;2023-08-01T07:26:40;23.05;;;21.10;;
40252;SDS011;25972;51.854;4.534;2023-08-01T07:29:06;23.42;;;21.42;;
40252;SDS011;25972;51.854;4.534;2023-08-01T07:31:36;22.13;;;20.40;;
40252;SDS011;25972;51.854;4.534;2023-08-01T07:34:03;22.80;;;20.77;;
40252;SDS011;25972;51.854;4.534;2023-08-01T07:36:29;23.60;;;21.35;;
40252;SDS011;25972;51.854;4.534;2023-08-01T07:38:56;23.05;;;21.08;;
40252;SDS011;25972;51.854;4.534;2023-08-01T07:41:23;24.40;;;21.95;;
40252;SDS011;25972;51.854;4.534;2023-08-01T07:43:51;22.67;;;20.73;;
40252;SDS011;25972;51.854;4.534;2023-08-01T07:46:18;23.40;;;21.27;;
40252;SDS011;25972;51.854;4.534;2023-08-01T07:48:51;22.48;;;20.67;;
40252;SDS011;25972;51.854;4.534;2023-08-01T07:51:19;21.80;;;20.03;;
40252;SDS011;25972;51.854;4.534;2023-08-01T07:53:45;23.55;;;21.30;;
40252;SDS011;25972;51.854;4.534;2023-08-01T07:56:13;23.48;;;21.23;;
40252;SDS011;25972;51.854;4.534;2023-08-01T07:58:40;23.83;;;21.10;;
40252;SDS011;25972;51.854;4.534;2023-08-01T08:01:06;22.63;;;20.63;;
40252;SDS011;25972;51.854;4.534;2023-08-01T08:03:34;23.45;;;21.50;;
40252;SDS011;25972;51.854;4.534;2023-08-01T08:06:01;23.83;;;21.25;;
40252;SDS011;25972;51.854;4.534;2023-08-01T08:08:30;23.23;;;21.23;;
40252;SDS011;25972;51.854;4.534;2023-08-01T08:11:00;23.80;;;21.35;;
40252;SDS011;25972;51.854;4.534;2023-08-01T08:13:28;24.55;;;21.88;;
40252;SDS011;25972;51.854;4.534;2023-08-01T08:15:55;22.67;;;20.88;;
40252;SDS011;25972;51.854;4.534;2023-08-01T08:18:22;23.98;;;21.90;;
40252;SDS011;25972;51.854;4.534;2023-08-01T08:20:48;24.30;;;22.00;;
40252;SDS011;25972;51.854;4.534;2023-08-01T08:23:14;23.00;;;21.15;;
40252;SDS011;25972;51.854;4.534;2023-08-01T08:25:41;22.92;;;20.88;;
40252;SDS011;25972;51.854;4.534;2023-08-01T08:28:09;22.83;;;21.00;;
40252;SDS011;25972;51.854;4.534;2023-08-01T08:30:37;23.67;;;21.27;;
40252;SDS011;25972;51.854;4.534;2023-08-01T08:33:04;23.95;;;21.08;;
40252;SDS011;25972;51.854;4.534;2023-08-01T08:35:32;23.17;;;21.02;;
40252;SDS011;25972;51.854;4.534;2023-08-01T08:37:59;23.35;;;21.13;;
40252;SDS011;25972;51.854;4.534;2023-08-01T08:40:27;23.48;;;21.25;;
40252;SDS011;25972;51.854;4.534;2023-08-01T08:42:53;23.55;;;21.50;;
40252;SDS011;25972;51.854;4.534;2023-08-01T08:45:20;23.90;;;21.50;;
40252;SDS011;25972;51.854;4.534;2023-08-01T08:47:48;23.55;;;21.30;;
40252;SDS011;25972;51.854;4.534;2023-08-01T08:50:20;24.10;;;21.80;;
40252;SDS011;25972;51.854;4.534;2023-08-01T08:52:46;24.17;;;22.27;;
40252;SDS011;25972;51.854;4.534;2023-08-01T08:55:12;27.35;;;22.30;;
40252;SDS011;25972;51.854;4.534;2023-08-01T08:57:39;25.17;;;22.88;;
40252;SDS011;25972;51.854;4.534;2023-08-01T09:00:06;24.10;;;21.90;;
40252;SDS011;25972;51.854;4.534;2023-08-01T09:02:33;23.88;;;21.60;;
40252;SDS011;25972;51.854;4.534;2023-08-01T09:05:03;23.55;;;21.48;;
40252;SDS011;25972;51.854;4.534;2023-08-01T09:07:29;23.10;;;20.85;;
40252;SDS011;25972;51.854;4.534;2023-08-01T09:09:58;23.70;;;21.73;;
40252;SDS011;25972;51.854;4.534;2023-08-01T09:12:24;24.60;;;22.00;;
40252;SDS011;25972;51.854;4.534;2023-08-01T09:14:52;24.02;;;21.83;;
40252;SDS011;25972;51.854;4.534;2023-08-01T09:17:21;24.23;;;21.75;;
40252;SDS011;25972;51.854;4.534;2023-08-01T09:19:48;23.73;;;21.73;;
40252;SDS011;25972;51.854;4.534;2023-08-01T09:22:16;25.20;;;22.80;;
40252;SDS011;25972;51.854;4.534;2023-08-01T09:24:51;25.02;;;22.83;;
40252;SDS011;25972;51.854;4.534;2023-08-01T09:29:45;24.23;;;21.88;;
40252;SDS011;25972;51.854;4.534;2023-08-01T09:32:12;25.35;;;22.90;;
40252;SDS011;25972;51.854;4.534;2023-08-01T09:34:40;25.65;;;23.08;;
40252;SDS011;25972;51.854;4.534;2023-08-01T09:37:10;25.25;;;23.02;;
40252;SDS011;25972;51.854;4.534;2023-08-01T09:39:37;25.48;;;22.88;;
40252;SDS011;25972;51.854;4.534;2023-08-01T09:42:04;26.08;;;23.15;;
40252;SDS011;25972;51.854;4.534;2023-08-01T09:44:30;23.45;;;21.65;;
40252;SDS011;25972;51.854;4.534;2023-08-01T09:46:56;22.80;;;21.10;;
40252;SDS011;25972;51.854;4.534;2023-08-01T09:49:24;24.08;;;21.88;;
40252;SDS011;25972;51.854;4.534;2023-08-01T09:51:52;23.70;;;21.65;;
40252;SDS011;25972;51.854;4.534;2023-08-01T09:54:18;23.90;;;21.60;;
40252;SDS011;25972;51.854;4.534;2023-08-01T09:56:48;23.95;;;21.40;;
40252;SDS011;25972;51.854;4.534;2023-08-01T09:59:17;23.33;;;20.98;;
40252;SDS011;25972;51.854;4.534;2023-08-01T10:01:45;21.90;;;20.17;;
40252;SDS011;25972;51.854;4.534;2023-08-01T10:04:15;22.83;;;20.83;;
40252;SDS011;25972;51.854;4.534;2023-08-01T10:06:43;21.25;;;19.15;;
40252;SDS011;25972;51.854;4.534;2023-08-01T10:09:15;21.60;;;19.70;;
40252;SDS011;25972;51.854;4.534;2023-08-01T10:11:42;21.05;;;19.25;;
40252;SDS011;25972;51.854;4.534;2023-08-01T10:14:12;20.98;;;19.20;;
40252;SDS011;25972;51.854;4.534;2023-08-01T10:16:39;21.13;;;19.15;;
40252;SDS011;25972;51.854;4.534;2023-08-01T10:19:07;20.65;;;18.77;;
40252;SDS011;25972;51.854;4.534;2023-08-01T10:21:34;21.00;;;18.95;;
40252;SDS011;25972;51.854;4.534;2023-08-01T10:24:03;21.77;;;19.67;;
40252;SDS011;25972;51.854;4.534;2023-08-01T10:26:33;20.73;;;18.70;;
40252;SDS011;25972;51.854;4.534;2023-08-01T10:29:00;20.15;;;18.42;;
40252;SDS011;25972;51.854;4.534;2023-08-01T10:31:29;21.17;;;19.25;;
40252;SDS011;25972;51.854;4.534;2023-08-01T10:34:03;20.38;;;18.88;;
40252;SDS011;25972;51.854;4.534;2023-08-01T10:36:30;20.92;;;19.13;;
40252;SDS011;25972;51.854;4.534;2023-08-01T10:38:58;21.88;;;19.77;;
40252;SDS011;25972;51.854;4.534;2023-08-01T10:41:26;20.75;;;19.15;;
40252;SDS011;25972;51.854;4.534;2023-08-01T10:44:03;20.33;;;18.70;;
40252;SDS011;25972;51.854;4.534;2023-08-01T10:46:46;20.33;;;18.52;;
40252;SDS011;25972;51.854;4.534;2023-08-01T10:49:12;21.17;;;19.33;;
40252;SDS011;25972;51.854;4.534;2023-08-01T10:51:39;19.70;;;18.20;;
40252;SDS011;25972;51.854;4.534;2023-08-01T10:54:06;20.67;;;18.77;;
40252;SDS011;25972;51.854;4.534;2023-08-01T10:56:44;20.20;;;18.35;;
40252;SDS011;25972;51.854;4.534;2023-08-01T10:59:11;20.38;;;18.60;;
40252;SDS011;25972;51.854;4.534;2023-08-01T11:01:43;20.35;;;18.40;;
40252;SDS011;25972;51.854;4.534;2023-08-01T11:04:14;18.63;;;17.33;;
40252;SDS011;25972;51.854;4.534;2023-08-01T11:06:48;20.20;;;18.60;;
40252;SDS011;25972;51.854;4.534;2023-08-01T11:09:18;20.58;;;18.88;;
40252;SDS011;25972;51.854;4.534;2023-08-01T11:11:46;21.08;;;18.98;;
40252;SDS011;25972;51.854;4.534;2023-08-01T11:14:14;21.17;;;19.08;;
40252;SDS011;25972;51.854;4.534;2023-08-01T11:16:41;20.00;;;18.42;;
40252;SDS011;25972;51.854;4.534;2023-08-01T11:19:18;20.38;;;18.70;;
40252;SDS011;25972;51.854;4.534;2023-08-01T11:21:45;20.42;;;18.60;;
40252;SDS011;25972;51.854;4.534;2023-08-01T11:24:12;21.27;;;19.42;;
40252;SDS011;25972;51.854;4.534;2023-08-01T11:26:40;21.38;;;19.13;;
40252;SDS011;25972;51.854;4.534;2023-08-01T11:29:06;21.05;;;18.98;;
40252;SDS011;25972;51.854;4.534;2023-08-01T11:31:33;20.30;;;18.45;;
40252;SDS011;25972;51.854;4.534;2023-08-01T11:33:59;20.48;;;18.88;;
40252;SDS011;25972;51.854;4.534;2023-08-01T11:36:27;20.33;;;18.67;;
40252;SDS011;25972;51.854;4.534;2023-08-01T11:38:54;20.40;;;18.70;;
40252;SDS011;25972;51.854;4.534;2023-08-01T11:41:22;20.85;;;19.00;;
40252;SDS011;25972;51.854;4.534;2023-08-01T11:43:49;20.65;;;18.75;;
40252;SDS011;25972;51.854;4.534;2023-08-01T11:46:16;20.30;;;18.60;;
40252;SDS011;25972;51.854;4.534;2023-08-01T11:48:49;20.25;;;18.65;;
40252;SDS011;25972;51.854;4.534;2023-08-01T11:51:15;20.52;;;18.92;;
40252;SDS011;25972;51.854;4.534;2023-08-01T11:53:43;20.85;;;18.90;;
40252;SDS011;25972;51.854;4.534;2023-08-01T11:56:19;20.27;;;18.67;;
40252;SDS011;25972;51.854;4.534;2023-08-01T11:58:47;20.70;;;19.00;;
40252;SDS011;25972;51.854;4.534;2023-08-01T12:01:14;21.15;;;19.02;;
40252;SDS011;25972;51.854;4.534;2023-08-01T12:06:14;20.15;;;18.45;;
40252;SDS011;25972;51.854;4.534;2023-08-01T12:08:43;21.25;;;19.02;;
40252;SDS011;25972;51.854;4.534;2023-08-01T12:11:17;20.02;;;18.35;;
40252;SDS011;25972;51.854;4.534;2023-08-01T12:13:47;19.80;;;18.10;;
40252;SDS011;25972;51.854;4.534;2023-08-01T12:16:24;20.08;;;18.23;;
40252;SDS011;25972;51.854;4.534;2023-08-01T12:18:51;19.58;;;18.08;;
40252;SDS011;25972;51.854;4.534;2023-08-01T12:21:17;20.23;;;18.55;;
40252;SDS011;25972;51.854;4.534;2023-08-01T12:23:47;20.08;;;18.27;;
40252;SDS011;25972;51.854;4.534;2023-08-01T12:26:13;20.52;;;18.80;;
40252;SDS011;25972;51.854;4.534;2023-08-01T12:28:40;19.83;;;18.33;;
40252;SDS011;25972;51.854;4.534;2023-08-01T12:31:06;19.23;;;17.70;;
40252;SDS011;25972;51.854;4.534;2023-08-01T12:33:32;20.02;;;18.20;;
40252;SDS011;25972;51.854;4.534;2023-08-01T12:35:58;20.23;;;18.63;;
40252;SDS011;25972;51.854;4.534;2023-08-01T12:38:25;20.75;;;18.95;;
40252;SDS011;25972;51.854;4.534;2023-08-01T12:40:53;20.83;;;19.13;;
40252;SDS011;25972;51.854;4.534;2023-08-01T12:43:19;20.80;;;19.00;;
40252;SDS011;25972;51.854;4.534;2023-08-01T12:45:46;20.20;;;18.60;;
40252;SDS011;25972;51.854;4.534;2023-08-01T12:48:13;21.10;;;19.17;;
40252;SDS011;25972;51.854;4.534;2023-08-01T12:50:42;20.67;;;18.98;;
40252;SDS011;25972;51.854;4.534;2023-08-01T12:53:16;20.30;;;18.48;;
40252;SDS011;25972;51.854;4.534;2023-08-01T12:55:44;19.40;;;17.90;;
40252;SDS011;25972;51.854;4.534;2023-08-01T12:58:12;21.20;;;19.30;;
40252;SDS011;25972;51.854;4.534;2023-08-01T13:00:39;20.98;;;19.17;;
40252;SDS011;25972;51.854;4.534;2023-08-01T13:03:05;20.42;;;18.38;;
40252;SDS011;25972;51.854;4.534;2023-08-01T13:05:34;20.58;;;18.75;;
40252;SDS011;25972;51.854;4.534;2023-08-01T13:08:02;19.52;;;17.98;;
40252;SDS011;25972;51.854;4.534;2023-08-01T13:10:29;20.33;;;18.25;;
40252;SDS011;25972;51.854;4.534;2023-08-01T13:12:56;19.83;;;18.30;;
40252;SDS011;25972;51.854;4.534;2023-08-01T13:15:23;19.63;;;18.13;;
40252;SDS011;25972;51.854;4.534;2023-08-01T13:17:49;19.52;;;18.13;;
40252;SDS011;25972;51.854;4.534;2023-08-01T13:20:15;19.83;;;18.33;;
40252;SDS011;25972;51.854;4.534;2023-08-01T13:22:41;20.73;;;18.60;;
40252;SDS011;25972;51.854;4.534;2023-08-01T13:25:08;20.98;;;19.15;;
40252;SDS011;25972;51.854;4.534;2023-08-01T13:27:34;20.02;;;18.38;;
40252;SDS011;25972;51.854;4.534;2023-08-01T13:30:01;20.15;;;18.50;;
40252;SDS011;25972;51.854;4.534;2023-08-01T13:32:29;20.23;;;18.40;;
40252;SDS011;25972;51.854;4.534;2023-08-01T13:34:55;20.42;;;18.83;;
40252;SDS011;25972;51.854;4.534;2023-08-01T13:37:21;20.13;;;18.48;;
40252;SDS011;25972;51.854;4.534;2023-08-01T13:39:48;21.60;;;19.50;;
40252;SDS011;25972;51.854;4.534;2023-08-01T13:42:17;20.05;;;18.40;;
40252;SDS011;25972;51.854;4.534;2023-08-01T13:44:47;19.90;;;18.20;;
40252;SDS011;25972;51.854;4.534;2023-08-01T13:47:16;19.88;;;18.38;;
40252;SDS011;25972;51.854;4.534;2023-08-01T13:49:43;20.63;;;18.92;;
40252;SDS011;25972;51.854;4.534;2023-08-01T13:52:10;19.35;;;17.85;;
40252;SDS011;25972;51.854;4.534;2023-08-01T13:54:36;20.88;;;18.20;;
40252;SDS011;25972;51.854;4.534;2023-08-01T13:57:02;19.80;;;18.10;;
40252;SDS011;25972;51.854;4.534;2023-08-01T13:59:29;19.50;;;17.98;;
40252;SDS011;25972;51.854;4.534;2023-08-01T14:01:58;20.08;;;18.50;;
40252;SDS011;25972;51.854;4.534;2023-08-01T14:04:24;19.50;;;17.95;;
40252;SDS011;25972;51.854;4.534;2023-08-01T14:06:51;19.60;;;17.80;;
40252;SDS011;25972;51.854;4.534;2023-08-01T14:09:21;19.95;;;18.42;;
40252;SDS011;25972;51.854;4.534;2023-08-01T14:11:47;19.48;;;18.05;;
40252;SDS011;25972;51.854;4.534;2023-08-01T14:14:16;19.90;;;18.20;;
40252;SDS011;25972;51.854;4.534;2023-08-01T14:16:42;19.75;;;18.10;;
40252;SDS011;25972;51.854;4.534;2023-08-01T14:19:09;20.27;;;18.58;;
40252;SDS011;25972;51.854;4.534;2023-08-01T14:21:35;19.50;;;18.00;;
40252;SDS011;25972;51.854;4.534;2023-08-01T14:24:02;19.02;;;17.52;;
40252;SDS011;25972;51.854;4.534;2023-08-01T14:26:29;18.90;;;17.55;;